Gvasjugi, Russia
Current Conditions -  °F | °C
As of 5:30 PM on Friday 31 Oct 2014 (Local Time) from UHHH Reporting Station
Clear Clear  
Wind Chill: 27°   Ceiling: Unl
Heat Index: 36°   Visibility: 6mi
Dew Point: 23°   Wind: 13mph
Humidity: 60%   Direction: 240°WSW
Pressure: 30.18"   Gusts: NA
Location:  47.67°N, 136.18°E
Report Text: UHHH 310730Z 24006MPS CAVOK 02/M05 Q1022 NOSIG RMK QFE760/101423090060
Loading
Personal Weather Stations






























Interactive Weather Map
Tropical Storm Tracking
New forecast layout! Learn more

10-Day Weather Forecast

Advertisements
Track Severe Weather on mobile